< < Back
Terminal Aerodrome Forecast


Current Version              Previous Versions:   1  2  3  4  5  6  7  8  9  

Terminal Aerodrome Forecast

242
FTUS42 KGSP 282057 AAA
TAFAVL
TAF AMD
KAVL 282057Z 2821/2918 VRB06KT P6SM FEW045
     FM290000 36005KT P6SM FEW040 SCT250
     FM290900 VRB03KT 4SM BR FEW015
     FM291300 34004KT P6SM FEW035 SCT250=



Latest METAR

594
SAUS70 KWBC 291200 RRE
MTRAVL
METAR KAVL 291154Z 00000KT 5SM BR BKN002 17/16 A3025 RMK AO2 SLP221
T01670156 10189 20161 53006


USA.gov is the U.S. government's official web portal to all federal, state and local government web resources and services.